createdAt,value
2022-10-18T00:00:46.060Z,12.40
2022-10-18T00:03:13.215Z,12.40
2022-10-18T00:05:40.342Z,12.30
2022-10-18T00:08:07.464Z,12.30
2022-10-18T00:10:34.605Z,12.30
2022-10-18T00:13:01.722Z,12.30
2022-10-18T00:15:28.923Z,12.20
2022-10-18T00:17:56.066Z,12.20
2022-10-18T00:20:23.218Z,12.20
2022-10-18T00:22:50.359Z,12.10
2022-10-18T00:25:17.718Z,12.10
2022-10-18T00:27:44.863Z,12.10
2022-10-18T00:30:12.084Z,12.10
2022-10-18T00:32:40.295Z,12.00
2022-10-18T00:35:08.240Z,12.10
2022-10-18T00:37:35.560Z,12.00
2022-10-18T00:40:03.050Z,12.00
2022-10-18T00:42:32.421Z,12.00
2022-10-18T00:45:21.953Z,12.00
2022-10-18T00:47:55.270Z,12.00
2022-10-18T00:50:22.522Z,12.00
2022-10-18T00:52:56.760Z,12.00
2022-10-18T00:55:24.450Z,12.00
2022-10-18T00:57:51.776Z,11.90
2022-10-18T01:00:19.097Z,11.90
2022-10-18T01:02:46.848Z,11.80
2022-10-18T01:05:15.028Z,11.80
2022-10-18T01:08:11.068Z,11.80
2022-10-18T01:10:49.839Z,11.80
2022-10-18T01:13:38.834Z,11.80
2022-10-18T01:16:17.973Z,11.70
2022-10-18T01:19:11.835Z,11.70
2022-10-18T01:21:59.473Z,11.70
2022-10-18T01:24:47.301Z,11.70
2022-10-18T01:28:02.020Z,11.70
2022-10-18T01:30:43.010Z,11.70
2022-10-18T01:33:18.995Z,11.70
2022-10-18T01:35:52.900Z,11.70
2022-10-18T01:38:20.270Z,11.70
2022-10-18T01:40:48.327Z,11.70
2022-10-18T01:43:15.486Z,11.70
2022-10-18T01:45:42.606Z,11.70
2022-10-18T01:48:10.750Z,11.60
2022-10-18T01:50:37.917Z,11.60
2022-10-18T01:53:05.096Z,11.60
2022-10-18T01:55:43.545Z,11.60
2022-10-18T01:58:22.102Z,11.50
2022-10-18T02:00:50.830Z,11.50
2022-10-18T02:03:24.454Z,11.50
2022-10-18T02:06:08.156Z,11.50
2022-10-18T02:08:43.934Z,11.50
2022-10-18T02:11:13.008Z,11.50
2022-10-18T02:13:46.402Z,11.50
2022-10-18T02:16:16.316Z,11.50
2022-10-18T02:18:55.418Z,11.40
2022-10-18T02:21:22.598Z,11.40
2022-10-18T02:23:49.717Z,11.30
2022-10-18T02:26:16.893Z,11.30
2022-10-18T02:28:44.085Z,11.30
2022-10-18T02:31:36.388Z,11.20
2022-10-18T02:34:20.522Z,11.20
2022-10-18T02:36:52.638Z,11.20
2022-10-18T02:39:22.711Z,11.20
2022-10-18T02:41:49.826Z,11.20
2022-10-18T02:44:17.046Z,11.20
2022-10-18T02:46:44.251Z,11.20
2022-10-18T02:49:11.378Z,11.20
2022-10-18T02:51:38.547Z,11.20
2022-10-18T02:54:05.711Z,11.20
2022-10-18T02:56:32.897Z,11.10
2022-10-18T02:59:00.042Z,11.10
2022-10-18T03:01:27.292Z,11.10
2022-10-18T03:03:54.434Z,11.10
2022-10-18T03:06:21.558Z,11.10
2022-10-18T03:08:48.730Z,11.10
2022-10-18T03:11:15.852Z,11.10
2022-10-18T03:13:42.982Z,11.10
2022-10-18T03:16:10.113Z,11.10
2022-10-18T03:18:37.247Z,11.10
2022-10-18T03:21:07.638Z,11.10
2022-10-18T03:23:34.918Z,11.10
2022-10-18T03:26:02.104Z,11.00
2022-10-18T03:28:29.286Z,11.00
2022-10-18T03:31:01.258Z,11.00
2022-10-18T03:33:28.827Z,11.00
2022-10-18T03:35:55.989Z,11.00
2022-10-18T03:38:23.124Z,11.00
2022-10-18T03:40:50.367Z,11.00
2022-10-18T03:43:17.525Z,11.00
2022-10-18T03:45:44.668Z,11.00
2022-10-18T03:48:11.898Z,11.00
2022-10-18T03:50:39.015Z,11.00
2022-10-18T03:53:06.427Z,11.00
2022-10-18T03:55:33.557Z,11.10
2022-10-18T03:58:00.902Z,11.00
2022-10-18T04:00:28.199Z,11.10
2022-10-18T04:02:56.081Z,11.10
2022-10-18T04:05:31.084Z,11.10
2022-10-18T04:07:58.321Z,11.10
2022-10-18T04:10:25.775Z,11.10
2022-10-18T04:12:53.110Z,11.10
2022-10-18T04:15:20.417Z,11.10
2022-10-18T04:17:47.554Z,11.10
2022-10-18T04:20:14.845Z,11.10
2022-10-18T04:22:41.994Z,11.10
2022-10-18T04:25:09.263Z,11.10
2022-10-18T04:27:36.798Z,11.10
2022-10-18T04:30:04.257Z,11.10
2022-10-18T04:32:31.433Z,11.10
2022-10-18T04:34:58.647Z,11.10
2022-10-18T04:37:25.783Z,11.10
2022-10-18T04:39:53.809Z,11.00
2022-10-18T04:42:21.760Z,11.00
2022-10-18T04:44:48.957Z,11.00
2022-10-18T04:47:16.549Z,11.00
2022-10-18T04:49:43.730Z,11.00
2022-10-18T04:52:11.082Z,11.00
2022-10-18T04:54:38.260Z,10.90
2022-10-18T04:57:05.428Z,10.90
2022-10-18T04:59:32.569Z,10.90
2022-10-18T05:01:59.763Z,10.90
2022-10-18T05:04:27.051Z,10.90
2022-10-18T05:06:54.581Z,10.90
2022-10-18T05:09:24.524Z,10.90
2022-10-18T05:11:51.708Z,10.90
2022-10-18T05:14:19.029Z,10.90
2022-10-18T05:16:46.226Z,10.90
2022-10-18T05:19:13.366Z,10.90
2022-10-18T05:21:40.551Z,10.90
2022-10-18T05:24:07.749Z,10.90
2022-10-18T05:26:37.991Z,11.00
2022-10-18T05:29:05.221Z,11.00
2022-10-18T05:31:32.458Z,11.00
2022-10-18T05:33:59.658Z,11.00
2022-10-18T05:36:27.095Z,11.10
2022-10-18T05:38:54.318Z,11.10
2022-10-18T05:41:21.514Z,11.10
2022-10-18T05:43:48.671Z,11.10
2022-10-18T05:46:16.006Z,11.10
2022-10-18T05:48:44.488Z,11.10
2022-10-18T05:51:11.911Z,11.10
2022-10-18T05:53:39.133Z,11.20
2022-10-18T05:56:07.068Z,11.20
2022-10-18T05:58:34.494Z,11.20
2022-10-18T06:01:02.017Z,11.30
2022-10-18T06:03:30.546Z,11.30
2022-10-18T06:06:08.290Z,11.40
2022-10-18T06:08:35.651Z,11.40
2022-10-18T06:11:07.842Z,11.40
2022-10-18T06:13:35.049Z,11.50
2022-10-18T06:16:02.186Z,11.60
2022-10-18T06:18:29.744Z,11.60
2022-10-18T06:20:59.977Z,11.60
2022-10-18T06:23:27.919Z,11.70
2022-10-18T06:26:01.962Z,11.70
2022-10-18T06:28:29.557Z,11.70
2022-10-18T06:30:57.573Z,11.80
2022-10-18T06:33:24.888Z,11.90
2022-10-18T06:35:59.570Z,12.00
2022-10-18T06:38:27.556Z,12.10
2022-10-18T06:40:55.055Z,12.10
2022-10-18T06:43:22.223Z,12.10
2022-10-18T06:45:49.875Z,12.20
2022-10-18T06:48:17.489Z,12.20
2022-10-18T06:50:57.664Z,12.10
2022-10-18T06:53:25.866Z,12.20
2022-10-18T06:55:53.758Z,12.20
2022-10-18T06:58:20.955Z,12.20
2022-10-18T07:00:48.149Z,12.20
2022-10-18T07:03:15.399Z,12.30
2022-10-18T07:05:42.511Z,12.30
2022-10-18T07:08:09.700Z,12.30
2022-10-18T07:10:36.937Z,12.40
2022-10-18T07:13:30.429Z,12.40
2022-10-18T07:16:08.055Z,12.40
2022-10-18T07:18:36.057Z,12.50
2022-10-18T07:23:46.323Z,12.60
2022-10-18T07:26:13.405Z,12.60
2022-10-18T07:28:41.072Z,12.70
2022-10-18T07:31:09.367Z,12.70
2022-10-18T07:33:38.098Z,12.90
2022-10-18T07:36:06.966Z,12.90
2022-10-18T07:38:34.669Z,12.90
2022-10-18T07:41:03.535Z,13.00
2022-10-18T07:43:30.800Z,13.00
2022-10-18T07:45:59.551Z,13.00
2022-10-18T07:48:26.754Z,13.10
2022-10-18T07:50:54.112Z,13.10
2022-10-18T07:53:21.275Z,13.10
2022-10-18T07:55:48.409Z,13.20
2022-10-18T07:58:15.564Z,13.30
2022-10-18T08:00:42.917Z,13.30
2022-10-18T08:03:10.170Z,13.30
2022-10-18T08:05:37.356Z,13.30
2022-10-18T08:08:07.899Z,13.30
2022-10-18T08:10:36.184Z,13.40
2022-10-18T08:13:03.517Z,13.50
2022-10-18T08:15:30.771Z,13.60
2022-10-18T08:17:58.018Z,13.60
2022-10-18T08:20:30.717Z,13.70
2022-10-18T08:23:00.477Z,13.80
2022-10-18T08:25:29.157Z,13.90
2022-10-18T08:27:56.708Z,14.00
2022-10-18T08:30:24.116Z,14.00
2022-10-18T08:32:51.490Z,14.20
2022-10-18T08:35:18.727Z,14.30
2022-10-18T08:37:46.214Z,14.40
2022-10-18T08:40:14.632Z,14.50
2022-10-18T08:42:58.002Z,14.60
2022-10-18T08:45:40.866Z,14.70
2022-10-18T08:48:16.712Z,14.80
2022-10-18T08:50:43.909Z,15.00
2022-10-18T08:53:25.393Z,15.10
2022-10-18T08:56:14.755Z,15.20
2022-10-18T08:58:45.110Z,15.30
2022-10-18T09:01:41.285Z,15.50
2022-10-18T09:04:28.024Z,15.60
2022-10-18T09:07:32.220Z,15.60
2022-10-18T09:10:14.899Z,15.80
2022-10-18T09:13:14.297Z,15.90
2022-10-18T09:15:55.306Z,16.00
2022-10-18T09:18:33.296Z,16.10
2022-10-18T09:21:02.441Z,16.20
2022-10-18T09:23:51.644Z,16.20
2022-10-18T09:26:20.363Z,16.20
2022-10-18T09:29:03.245Z,16.30
2022-10-18T09:31:42.751Z,16.30
2022-10-18T09:34:31.389Z,16.50
2022-10-18T09:36:59.579Z,16.60
2022-10-18T09:39:35.795Z,16.70
2022-10-18T09:42:07.396Z,16.80
2022-10-18T09:44:53.005Z,16.90
2022-10-18T09:47:26.483Z,17.10
2022-10-18T09:49:59.158Z,17.30
2022-10-18T09:52:53.093Z,17.30
2022-10-18T09:55:26.500Z,17.40
2022-10-18T09:57:56.306Z,17.40
2022-10-18T10:00:26.138Z,17.50
2022-10-18T10:02:53.309Z,17.50
2022-10-18T10:05:20.960Z,17.50
2022-10-18T10:07:48.617Z,17.50
2022-10-18T10:10:26.133Z,17.60
2022-10-18T10:13:22.685Z,17.70
2022-10-18T10:16:02.518Z,17.70
2022-10-18T10:18:36.595Z,17.70
2022-10-18T10:21:05.887Z,17.60
2022-10-18T10:23:34.010Z,17.60
2022-10-18T10:26:06.429Z,17.60
2022-10-18T10:28:36.545Z,17.70
2022-10-18T10:31:18.418Z,17.70
2022-10-18T10:33:47.648Z,17.70
2022-10-18T10:36:21.090Z,17.70
2022-10-18T10:39:06.128Z,17.80
2022-10-18T10:44:05.427Z,17.90
2022-10-18T10:46:36.430Z,18.00
2022-10-18T10:49:34.962Z,18.00
2022-10-18T10:52:08.785Z,18.10
2022-10-18T10:54:47.565Z,18.20
2022-10-18T10:57:21.666Z,18.30
2022-10-18T10:59:57.034Z,18.30
2022-10-18T11:02:34.023Z,18.30
2022-10-18T11:05:23.374Z,18.30
2022-10-18T11:07:52.159Z,18.40
2022-10-18T11:10:20.074Z,18.40
2022-10-18T11:12:54.358Z,18.50
2022-10-18T11:15:28.668Z,18.50
2022-10-18T11:18:26.916Z,18.60
2022-10-18T11:21:01.346Z,18.70
2022-10-18T11:23:32.331Z,18.70
2022-10-18T11:26:11.455Z,18.70
2022-10-18T11:29:06.749Z,18.70
2022-10-18T11:31:39.866Z,18.80
2022-10-18T11:34:21.999Z,18.80
2022-10-18T11:37:27.022Z,19.00
2022-10-18T11:40:17.531Z,19.00
2022-10-18T11:43:00.273Z,19.10
2022-10-18T11:45:46.411Z,19.10
2022-10-18T11:48:53.615Z,19.20
2022-10-18T11:51:38.652Z,19.20
2022-10-18T11:54:29.299Z,19.20
2022-10-18T11:57:32.605Z,19.30
2022-10-18T12:00:07.832Z,19.40
2022-10-18T12:02:53.874Z,19.50
2022-10-18T12:05:24.916Z,19.50
2022-10-18T12:08:10.556Z,19.50
2022-10-18T12:10:53.100Z,19.60
2022-10-18T12:13:46.526Z,19.60
2022-10-18T12:16:13.865Z,19.70
2022-10-18T12:18:59.423Z,19.80
2022-10-18T12:21:29.258Z,19.90
2022-10-18T12:24:05.685Z,19.90
2022-10-18T12:26:33.504Z,20.00
2022-10-18T12:29:06.959Z,20.00
2022-10-18T12:31:50.652Z,20.00
2022-10-18T12:34:43.595Z,20.00
2022-10-18T12:37:35.669Z,20.00
2022-10-18T12:40:10.558Z,20.10
2022-10-18T12:42:47.432Z,20.10
2022-10-18T12:45:29.236Z,20.10
2022-10-18T12:48:05.139Z,20.10
2022-10-18T12:50:37.679Z,20.20
2022-10-18T12:53:17.578Z,20.20
2022-10-18T12:55:47.061Z,20.30
2022-10-18T12:58:14.381Z,20.30
2022-10-18T13:00:51.745Z,20.30
2022-10-18T13:03:31.010Z,20.30
2022-10-18T13:06:01.585Z,20.30
2022-10-18T13:08:39.809Z,20.30
2022-10-18T13:11:10.306Z,20.30
2022-10-18T13:13:40.738Z,20.20
2022-10-18T13:16:20.305Z,20.20
2022-10-18T13:19:00.545Z,20.20
2022-10-18T13:21:42.900Z,20.20
2022-10-18T13:24:28.882Z,20.20
2022-10-18T13:30:20.807Z,20.20
2022-10-18T13:33:12.814Z,20.20
2022-10-18T13:35:55.049Z,20.20
2022-10-18T13:38:50.568Z,20.30
2022-10-18T13:43:52.980Z,20.30
2022-10-18T13:46:23.622Z,20.30
2022-10-18T13:48:52.361Z,20.30
2022-10-18T13:51:34.610Z,20.20
2022-10-18T13:54:04.973Z,20.20
2022-10-18T13:56:41.554Z,20.20
2022-10-18T13:59:26.961Z,20.20
2022-10-18T14:02:12.486Z,20.10
2022-10-18T14:05:24.629Z,20.10
2022-10-18T14:07:52.420Z,20.00
2022-10-18T14:11:02.377Z,20.00
2022-10-18T14:13:47.156Z,20.00
2022-10-18T14:16:39.143Z,19.90
2022-10-18T14:19:17.654Z,19.90
2022-10-18T14:21:50.889Z,19.80
2022-10-18T14:24:21.251Z,19.80
2022-10-18T14:26:48.406Z,19.80
2022-10-18T14:29:20.151Z,19.70
2022-10-18T14:31:52.603Z,19.70
2022-10-18T14:34:19.937Z,19.70
2022-10-18T14:36:48.297Z,19.70
2022-10-18T14:39:24.012Z,19.60
2022-10-18T14:41:55.258Z,19.60
2022-10-18T14:44:26.756Z,19.60
2022-10-18T14:47:13.822Z,19.60
2022-10-18T14:49:44.860Z,19.60
2022-10-18T14:52:22.948Z,19.60
2022-10-18T14:54:54.647Z,19.70
2022-10-18T14:57:33.749Z,19.60
2022-10-18T15:00:09.724Z,19.70
2022-10-18T15:02:37.666Z,19.60
2022-10-18T15:05:10.460Z,19.60
2022-10-18T15:07:37.663Z,19.60
2022-10-18T15:10:05.318Z,19.50
2022-10-18T15:12:36.975Z,19.50
2022-10-18T15:15:33.330Z,19.40
2022-10-18T15:18:00.620Z,19.40
2022-10-18T15:20:31.460Z,19.30
2022-10-18T15:23:22.180Z,19.30
2022-10-18T15:25:50.439Z,19.30
2022-10-18T15:28:31.721Z,19.20
2022-10-18T15:30:59.070Z,19.20
2022-10-18T15:33:27.372Z,19.20
2022-10-18T15:35:54.603Z,19.20
2022-10-18T15:38:26.555Z,19.10
2022-10-18T15:40:54.056Z,19.10
2022-10-18T15:43:24.256Z,19.10
2022-10-18T15:46:06.748Z,19.10
2022-10-18T15:48:35.208Z,19.10
2022-10-18T15:51:13.303Z,19.00
2022-10-18T15:53:49.687Z,19.00
2022-10-18T15:56:27.748Z,19.00
2022-10-18T15:58:56.937Z,18.90
2022-10-18T16:01:35.531Z,18.90
2022-10-18T16:04:29.171Z,18.90
2022-10-18T16:06:56.890Z,18.80
2022-10-18T16:09:25.591Z,18.80
2022-10-18T16:11:56.665Z,18.80
2022-10-18T16:14:25.218Z,18.80
2022-10-18T16:16:54.474Z,18.70
2022-10-18T16:19:22.640Z,18.60
2022-10-18T16:21:50.624Z,18.60
2022-10-18T16:24:17.976Z,18.60
2022-10-18T16:26:45.198Z,18.60
2022-10-18T16:29:14.661Z,18.50
2022-10-18T16:31:42.034Z,18.40
2022-10-18T16:34:11.853Z,18.40
2022-10-18T16:36:39.822Z,18.40
2022-10-18T16:39:10.738Z,18.30
2022-10-18T16:41:38.023Z,18.20
2022-10-18T16:44:05.369Z,18.20
2022-10-18T16:46:33.528Z,18.10
2022-10-18T16:49:03.429Z,18.10
2022-10-18T16:51:30.707Z,18.00
2022-10-18T16:53:57.895Z,18.00
2022-10-18T16:56:26.760Z,17.90
2022-10-18T16:58:54.030Z,17.90
2022-10-18T17:01:22.364Z,17.80
2022-10-18T17:03:52.105Z,17.70
2022-10-18T17:06:29.622Z,17.70
2022-10-18T17:08:57.242Z,17.70
2022-10-18T17:11:26.843Z,17.70
2022-10-18T17:13:54.294Z,17.60
2022-10-18T17:16:22.212Z,17.60
2022-10-18T17:18:50.412Z,17.50
2022-10-18T17:21:18.142Z,17.50
2022-10-18T17:23:47.241Z,17.50
2022-10-18T17:26:28.477Z,17.40
2022-10-18T17:29:04.327Z,17.40
2022-10-18T17:31:31.967Z,17.30
2022-10-18T17:34:01.424Z,17.30
2022-10-18T17:36:29.278Z,17.30
2022-10-18T17:38:56.613Z,17.40
2022-10-18T17:41:23.784Z,17.30
2022-10-18T17:43:51.178Z,17.30
2022-10-18T17:46:19.381Z,17.20
2022-10-18T17:48:46.726Z,17.20
2022-10-18T17:51:15.457Z,17.20
2022-10-18T17:53:42.667Z,17.20
2022-10-18T17:56:10.049Z,17.20
2022-10-18T17:58:37.211Z,17.10
2022-10-18T18:01:18.516Z,17.10
2022-10-18T18:03:47.497Z,17.10
2022-10-18T18:06:16.548Z,17.10
2022-10-18T18:08:44.102Z,17.00
2022-10-18T18:11:11.544Z,17.00
2022-10-18T18:13:38.807Z,16.90
2022-10-18T18:16:17.264Z,16.90
2022-10-18T18:18:44.696Z,16.90
2022-10-18T18:21:12.005Z,16.90
2022-10-18T18:23:39.216Z,16.90
2022-10-18T18:26:06.694Z,16.90
2022-10-18T18:28:35.953Z,16.80
2022-10-18T18:31:12.768Z,16.90
2022-10-18T18:33:40.041Z,16.80
2022-10-18T18:36:07.360Z,16.70
2022-10-18T18:38:35.321Z,16.80
2022-10-18T18:41:06.310Z,16.70
2022-10-18T18:43:33.985Z,16.70
2022-10-18T18:46:01.125Z,16.60
2022-10-18T18:48:28.370Z,16.70
2022-10-18T18:50:55.526Z,16.70
2022-10-18T18:53:25.842Z,16.60
2022-10-18T18:55:54.458Z,16.60
2022-10-18T18:58:21.585Z,16.60
2022-10-18T19:00:48.770Z,16.60
2022-10-18T19:03:15.888Z,16.60
2022-10-18T19:05:43.043Z,16.50
2022-10-18T19:08:10.183Z,16.50
2022-10-18T19:10:37.349Z,16.50
2022-10-18T19:13:04.510Z,16.40
2022-10-18T19:15:31.699Z,16.40
2022-10-18T19:17:58.811Z,16.40
2022-10-18T19:20:26.022Z,16.40
2022-10-18T19:22:53.516Z,16.40
2022-10-18T19:25:23.396Z,16.30
2022-10-18T19:27:53.367Z,16.40
2022-10-18T19:30:20.483Z,16.30
2022-10-18T19:32:47.715Z,16.30
2022-10-18T19:35:14.849Z,16.20
2022-10-18T19:37:41.966Z,16.20
2022-10-18T19:40:09.628Z,16.20
2022-10-18T19:42:37.399Z,16.20
2022-10-18T19:45:05.226Z,16.10
2022-10-18T19:47:32.507Z,16.10
2022-10-18T19:49:59.753Z,16.10
2022-10-18T19:52:28.478Z,16.10
2022-10-18T19:54:55.622Z,16.00
2022-10-18T19:57:22.977Z,16.00
2022-10-18T19:59:50.342Z,15.90
2022-10-18T20:02:17.586Z,15.90
2022-10-18T20:04:44.771Z,15.90
2022-10-18T20:07:11.952Z,15.80
2022-10-18T20:09:39.974Z,15.80
2022-10-18T20:12:07.147Z,15.80
2022-10-18T20:14:34.282Z,15.70
2022-10-18T20:17:01.443Z,15.70
2022-10-18T20:19:28.628Z,15.60
2022-10-18T20:21:57.561Z,15.70
2022-10-18T20:24:24.744Z,15.60
2022-10-18T20:29:20.604Z,15.60
2022-10-18T20:31:47.802Z,15.50
2022-10-18T20:34:14.998Z,15.50
2022-10-18T20:36:42.878Z,15.40
2022-10-18T20:39:10.100Z,15.40
2022-10-18T20:41:39.725Z,15.40
2022-10-18T20:44:09.690Z,15.30
2022-10-18T20:46:37.420Z,15.30
2022-10-18T20:49:05.601Z,15.20
2022-10-18T20:51:35.968Z,15.20
2022-10-18T20:56:34.070Z,15.20
2022-10-18T20:59:01.215Z,15.10
2022-10-18T21:01:32.850Z,15.20
2022-10-18T21:04:01.043Z,15.10
2022-10-18T21:06:32.685Z,15.00
2022-10-18T21:09:07.678Z,15.10
2022-10-18T21:11:36.295Z,15.00
2022-10-18T21:14:03.535Z,15.00
2022-10-18T21:16:34.852Z,15.00
2022-10-18T21:19:06.369Z,15.00
2022-10-18T21:21:33.628Z,14.90
2022-10-18T21:24:03.964Z,14.90
2022-10-18T21:26:34.186Z,14.90
2022-10-18T21:29:01.410Z,14.80
2022-10-18T21:31:30.067Z,14.80
2022-10-18T21:34:01.525Z,14.80
2022-10-18T21:36:31.458Z,14.70
2022-10-18T21:38:58.595Z,14.70
2022-10-18T21:41:25.837Z,14.70
2022-10-18T21:43:53.878Z,14.70
2022-10-18T21:46:21.896Z,14.60
2022-10-18T21:48:50.676Z,14.60
2022-10-18T21:51:18.860Z,14.60
2022-10-18T21:53:47.002Z,14.60
2022-10-18T21:56:18.567Z,14.50
2022-10-18T21:58:45.910Z,14.50
2022-10-18T22:01:15.257Z,14.50
2022-10-18T22:03:42.682Z,14.50
2022-10-18T22:06:14.859Z,14.50
2022-10-18T22:08:43.490Z,14.40
2022-10-18T22:11:11.706Z,14.50
2022-10-18T22:13:38.859Z,14.40
2022-10-18T22:16:06.731Z,14.50
2022-10-18T22:18:34.371Z,14.40
2022-10-18T22:21:06.098Z,14.40
2022-10-18T22:23:43.950Z,14.30
2022-10-18T22:26:22.171Z,14.40
2022-10-18T22:29:14.225Z,14.30
2022-10-18T22:31:45.179Z,14.30
2022-10-18T22:34:14.740Z,14.30
2022-10-18T22:36:42.026Z,14.30
2022-10-18T22:39:09.639Z,14.30
2022-10-18T22:41:36.906Z,14.20
2022-10-18T22:44:04.311Z,14.20
2022-10-18T22:46:32.489Z,14.20
2022-10-18T22:48:59.641Z,14.20
2022-10-18T22:51:27.045Z,14.20
2022-10-18T22:53:54.270Z,14.10
2022-10-18T22:56:21.909Z,14.20
2022-10-18T22:58:49.156Z,14.10
2022-10-18T23:01:18.010Z,14.10
2022-10-18T23:03:45.171Z,14.10
2022-10-18T23:06:44.899Z,14.20
2022-10-18T23:09:12.119Z,14.10
2022-10-18T23:11:39.530Z,14.10
2022-10-18T23:14:06.978Z,14.10
2022-10-18T23:16:34.105Z,14.10
2022-10-18T23:19:01.588Z,14.10
2022-10-18T23:21:29.119Z,14.10
2022-10-18T23:23:56.727Z,14.10
2022-10-18T23:26:25.328Z,14.10
2022-10-18T23:28:53.023Z,14.10
2022-10-18T23:31:31.020Z,14.10
2022-10-18T23:34:00.407Z,14.10
2022-10-18T23:36:27.645Z,14.10
2022-10-18T23:38:55.228Z,14.10
2022-10-18T23:41:22.461Z,14.10
2022-10-18T23:43:49.597Z,14.10
2022-10-18T23:46:16.964Z,14.20
2022-10-18T23:48:44.209Z,14.20
2022-10-18T23:51:11.452Z,14.20
2022-10-18T23:53:38.582Z,14.20
2022-10-18T23:56:08.134Z,14.20
2022-10-18T23:58:35.670Z,14.20
